sensor_id;sensor_type;location;lat;lon;timestamp;P1;durP1;ratioP1;P2;durP2;ratioP2
70967;SDS011;58629;48.808;8.820;2023-04-15T00:01:45;2.58;;;1.33;;
70967;SDS011;58629;48.808;8.820;2023-04-15T00:04:11;2.67;;;1.07;;
70967;SDS011;58629;48.808;8.820;2023-04-15T00:06:36;2.83;;;1.00;;
70967;SDS011;58629;48.808;8.820;2023-04-15T00:09:03;2.42;;;1.10;;
70967;SDS011;58629;48.808;8.820;2023-04-15T00:11:29;2.22;;;1.10;;
70967;SDS011;58629;48.808;8.820;2023-04-15T00:13:54;1.70;;;1.03;;
70967;SDS011;58629;48.808;8.820;2023-04-15T00:16:19;1.83;;;1.00;;
70967;SDS011;58629;48.808;8.820;2023-04-15T00:18:45;1.53;;;0.90;;
70967;SDS011;58629;48.808;8.820;2023-04-15T00:21:10;2.38;;;1.38;;
70967;SDS011;58629;48.808;8.820;2023-04-15T00:23:36;1.83;;;0.80;;
70967;SDS011;58629;48.808;8.820;2023-04-15T00:26:01;1.83;;;1.00;;
70967;SDS011;58629;48.808;8.820;2023-04-15T00:28:26;1.80;;;1.00;;
70967;SDS011;58629;48.808;8.820;2023-04-15T00:30:53;2.58;;;1.05;;
70967;SDS011;58629;48.808;8.820;2023-04-15T00:33:18;1.73;;;0.83;;
70967;SDS011;58629;48.808;8.820;2023-04-15T00:35:43;1.37;;;0.70;;
70967;SDS011;58629;48.808;8.820;2023-04-15T00:38:09;1.40;;;0.83;;
70967;SDS011;58629;48.808;8.820;2023-04-15T00:40:34;1.80;;;0.90;;
70967;SDS011;58629;48.808;8.820;2023-04-15T00:43:00;1.55;;;0.82;;
70967;SDS011;58629;48.808;8.820;2023-04-15T00:45:25;1.55;;;0.80;;
70967;SDS011;58629;48.808;8.820;2023-04-15T00:47:52;1.50;;;0.85;;
70967;SDS011;58629;48.808;8.820;2023-04-15T00:50:17;1.50;;;0.90;;
70967;SDS011;58629;48.808;8.820;2023-04-15T00:52:42;1.33;;;0.77;;
70967;SDS011;58629;48.808;8.820;2023-04-15T00:55:08;1.63;;;0.73;;
70967;SDS011;58629;48.808;8.820;2023-04-15T00:57:34;1.10;;;0.70;;
70967;SDS011;58629;48.808;8.820;2023-04-15T01:00:00;1.38;;;0.75;;
70967;SDS011;58629;48.808;8.820;2023-04-15T01:02:25;1.50;;;0.80;;
70967;SDS011;58629;48.808;8.820;2023-04-15T01:04:51;1.52;;;0.70;;
70967;SDS011;58629;48.808;8.820;2023-04-15T01:07:17;1.10;;;0.70;;
70967;SDS011;58629;48.808;8.820;2023-04-15T01:09:42;2.83;;;1.00;;
70967;SDS011;58629;48.808;8.820;2023-04-15T01:12:09;2.92;;;1.45;;
70967;SDS011;58629;48.808;8.820;2023-04-15T01:14:42;2.30;;;0.93;;
70967;SDS011;58629;48.808;8.820;2023-04-15T01:17:07;2.25;;;1.00;;
70967;SDS011;58629;48.808;8.820;2023-04-15T01:19:33;2.10;;;0.90;;
70967;SDS011;58629;48.808;8.820;2023-04-15T01:22:01;2.22;;;0.95;;
70967;SDS011;58629;48.808;8.820;2023-04-15T01:24:27;1.00;;;0.50;;
70967;SDS011;58629;48.808;8.820;2023-04-15T01:26:54;1.90;;;0.80;;
70967;SDS011;58629;48.808;8.820;2023-04-15T01:29:19;1.80;;;0.90;;
70967;SDS011;58629;48.808;8.820;2023-04-15T01:31:51;1.77;;;1.00;;
70967;SDS011;58629;48.808;8.820;2023-04-15T01:34:17;1.02;;;0.60;;
70967;SDS011;58629;48.808;8.820;2023-04-15T01:36:43;2.05;;;0.70;;
70967;SDS011;58629;48.808;8.820;2023-04-15T01:39:08;1.63;;;0.80;;
70967;SDS011;58629;48.808;8.820;2023-04-15T01:41:34;1.77;;;0.80;;
70967;SDS011;58629;48.808;8.820;2023-04-15T01:43:59;1.53;;;0.80;;
70967;SDS011;58629;48.808;8.820;2023-04-15T01:46:26;2.08;;;1.00;;
70967;SDS011;58629;48.808;8.820;2023-04-15T01:48:51;0.88;;;0.60;;
70967;SDS011;58629;48.808;8.820;2023-04-15T01:51:17;2.57;;;0.90;;
70967;SDS011;58629;48.808;8.820;2023-04-15T01:53:42;1.77;;;0.90;;
70967;SDS011;58629;48.808;8.820;2023-04-15T01:56:07;2.13;;;1.10;;
70967;SDS011;58629;48.808;8.820;2023-04-15T01:58:33;2.07;;;1.20;;
70967;SDS011;58629;48.808;8.820;2023-04-15T02:00:58;1.70;;;0.93;;
70967;SDS011;58629;48.808;8.820;2023-04-15T02:03:23;1.77;;;1.00;;
70967;SDS011;58629;48.808;8.820;2023-04-15T02:05:49;2.83;;;1.00;;
70967;SDS011;58629;48.808;8.820;2023-04-15T02:08:15;1.40;;;0.80;;
70967;SDS011;58629;48.808;8.820;2023-04-15T02:10:40;2.10;;;0.90;;
70967;SDS011;58629;48.808;8.820;2023-04-15T02:13:06;2.07;;;0.97;;
70967;SDS011;58629;48.808;8.820;2023-04-15T02:15:31;2.20;;;1.20;;
70967;SDS011;58629;48.808;8.820;2023-04-15T02:17:57;5.00;;;1.85;;
70967;SDS011;58629;48.808;8.820;2023-04-15T02:20:24;3.10;;;1.60;;
70967;SDS011;58629;48.808;8.820;2023-04-15T02:22:50;2.73;;;1.40;;
70967;SDS011;58629;48.808;8.820;2023-04-15T02:25:16;4.57;;;2.00;;
70967;SDS011;58629;48.808;8.820;2023-04-15T02:27:41;2.43;;;1.40;;
70967;SDS011;58629;48.808;8.820;2023-04-15T02:30:08;2.53;;;1.25;;
70967;SDS011;58629;48.808;8.820;2023-04-15T02:32:33;2.00;;;1.03;;
70967;SDS011;58629;48.808;8.820;2023-04-15T02:35:05;3.00;;;1.40;;
70967;SDS011;58629;48.808;8.820;2023-04-15T02:37:31;2.85;;;1.00;;
70967;SDS011;58629;48.808;8.820;2023-04-15T02:40:00;2.17;;;1.10;;
70967;SDS011;58629;48.808;8.820;2023-04-15T02:42:26;1.80;;;1.07;;
70967;SDS011;58629;48.808;8.820;2023-04-15T02:44:52;2.30;;;1.20;;
70967;SDS011;58629;48.808;8.820;2023-04-15T02:47:18;2.50;;;1.40;;
70967;SDS011;58629;48.808;8.820;2023-04-15T02:49:44;2.17;;;1.20;;
70967;SDS011;58629;48.808;8.820;2023-04-15T02:52:09;3.70;;;1.97;;
70967;SDS011;58629;48.808;8.820;2023-04-15T02:54:35;4.28;;;2.17;;
70967;SDS011;58629;48.808;8.820;2023-04-15T02:57:00;4.28;;;1.85;;
70967;SDS011;58629;48.808;8.820;2023-04-15T02:59:26;2.73;;;1.70;;
70967;SDS011;58629;48.808;8.820;2023-04-15T03:01:51;4.17;;;2.13;;
70967;SDS011;58629;48.808;8.820;2023-04-15T03:04:16;3.73;;;1.70;;
70967;SDS011;58629;48.808;8.820;2023-04-15T03:06:42;2.40;;;1.30;;
70967;SDS011;58629;48.808;8.820;2023-04-15T03:09:07;2.57;;;1.10;;
70967;SDS011;58629;48.808;8.820;2023-04-15T03:11:32;2.23;;;1.23;;
70967;SDS011;58629;48.808;8.820;2023-04-15T03:13:59;2.00;;;1.10;;
70967;SDS011;58629;48.808;8.820;2023-04-15T03:16:24;2.13;;;1.23;;
70967;SDS011;58629;48.808;8.820;2023-04-15T03:18:50;1.80;;;0.90;;
70967;SDS011;58629;48.808;8.820;2023-04-15T03:21:15;2.00;;;1.07;;
70967;SDS011;58629;48.808;8.820;2023-04-15T03:23:41;2.50;;;1.10;;
70967;SDS011;58629;48.808;8.820;2023-04-15T03:26:06;2.40;;;1.27;;
70967;SDS011;58629;48.808;8.820;2023-04-15T03:28:31;2.30;;;1.07;;
70967;SDS011;58629;48.808;8.820;2023-04-15T03:30:57;2.10;;;1.20;;
70967;SDS011;58629;48.808;8.820;2023-04-15T03:33:23;2.25;;;1.13;;
70967;SDS011;58629;48.808;8.820;2023-04-15T03:35:49;2.00;;;1.20;;
70967;SDS011;58629;48.808;8.820;2023-04-15T03:38:15;1.98;;;1.20;;
70967;SDS011;58629;48.808;8.820;2023-04-15T03:40:41;2.30;;;1.27;;
70967;SDS011;58629;48.808;8.820;2023-04-15T03:43:06;3.63;;;2.17;;
70967;SDS011;58629;48.808;8.820;2023-04-15T03:45:31;2.63;;;1.58;;
70967;SDS011;58629;48.808;8.820;2023-04-15T03:47:57;3.20;;;1.80;;
70967;SDS011;58629;48.808;8.820;2023-04-15T03:50:22;3.50;;;1.70;;
70967;SDS011;58629;48.808;8.820;2023-04-15T03:52:48;2.30;;;1.37;;
70967;SDS011;58629;48.808;8.820;2023-04-15T03:55:13;2.90;;;1.63;;
70967;SDS011;58629;48.808;8.820;2023-04-15T03:57:39;2.88;;;1.60;;
70967;SDS011;58629;48.808;8.820;2023-04-15T04:00:05;2.33;;;1.40;;
70967;SDS011;58629;48.808;8.820;2023-04-15T04:02:31;2.45;;;1.50;;
70967;SDS011;58629;48.808;8.820;2023-04-15T04:04:56;2.17;;;1.13;;
70967;SDS011;58629;48.808;8.820;2023-04-15T04:07:22;4.10;;;2.07;;
70967;SDS011;58629;48.808;8.820;2023-04-15T04:09:48;3.33;;;1.75;;
70967;SDS011;58629;48.808;8.820;2023-04-15T04:12:13;2.63;;;1.43;;
70967;SDS011;58629;48.808;8.820;2023-04-15T04:14:39;2.77;;;1.57;;
70967;SDS011;58629;48.808;8.820;2023-04-15T04:17:05;2.35;;;1.20;;
70967;SDS011;58629;48.808;8.820;2023-04-15T04:19:30;2.17;;;1.20;;
70967;SDS011;58629;48.808;8.820;2023-04-15T04:21:55;2.30;;;1.20;;
70967;SDS011;58629;48.808;8.820;2023-04-15T04:24:21;2.30;;;1.30;;
70967;SDS011;58629;48.808;8.820;2023-04-15T04:26:46;2.10;;;1.13;;
70967;SDS011;58629;48.808;8.820;2023-04-15T04:29:12;2.17;;;1.25;;
70967;SDS011;58629;48.808;8.820;2023-04-15T04:31:37;2.10;;;1.20;;
70967;SDS011;58629;48.808;8.820;2023-04-15T04:34:02;2.77;;;1.50;;
70967;SDS011;58629;48.808;8.820;2023-04-15T04:36:28;2.80;;;1.17;;
70967;SDS011;58629;48.808;8.820;2023-04-15T04:38:53;1.80;;;1.20;;
70967;SDS011;58629;48.808;8.820;2023-04-15T04:41:18;2.37;;;1.23;;
70967;SDS011;58629;48.808;8.820;2023-04-15T04:43:43;1.83;;;1.00;;
70967;SDS011;58629;48.808;8.820;2023-04-15T04:46:09;2.07;;;1.10;;
70967;SDS011;58629;48.808;8.820;2023-04-15T04:48:34;1.63;;;1.20;;
70967;SDS011;58629;48.808;8.820;2023-04-15T04:50:59;1.33;;;0.80;;
70967;SDS011;58629;48.808;8.820;2023-04-15T04:53:25;2.10;;;1.10;;
70967;SDS011;58629;48.808;8.820;2023-04-15T04:55:51;2.83;;;1.30;;
70967;SDS011;58629;48.808;8.820;2023-04-15T04:58:17;3.03;;;1.23;;
70967;SDS011;58629;48.808;8.820;2023-04-15T05:00:42;3.75;;;2.10;;
70967;SDS011;58629;48.808;8.820;2023-04-15T05:03:07;3.00;;;1.60;;
70967;SDS011;58629;48.808;8.820;2023-04-15T05:05:33;2.42;;;1.30;;
70967;SDS011;58629;48.808;8.820;2023-04-15T05:07:59;2.40;;;1.30;;
70967;SDS011;58629;48.808;8.820;2023-04-15T05:10:25;3.33;;;1.48;;
70967;SDS011;58629;48.808;8.820;2023-04-15T05:12:50;2.40;;;1.43;;
70967;SDS011;58629;48.808;8.820;2023-04-15T05:15:16;2.10;;;1.08;;
70967;SDS011;58629;48.808;8.820;2023-04-15T05:17:41;2.93;;;1.50;;
70967;SDS011;58629;48.808;8.820;2023-04-15T05:20:07;2.20;;;1.30;;
70967;SDS011;58629;48.808;8.820;2023-04-15T05:22:33;2.60;;;1.30;;
70967;SDS011;58629;48.808;8.820;2023-04-15T05:24:58;2.65;;;1.30;;
70967;SDS011;58629;48.808;8.820;2023-04-15T05:27:24;2.00;;;1.10;;
70967;SDS011;58629;48.808;8.820;2023-04-15T05:29:49;1.90;;;1.10;;
70967;SDS011;58629;48.808;8.820;2023-04-15T05:32:14;1.90;;;1.10;;
70967;SDS011;58629;48.808;8.820;2023-04-15T05:34:40;3.53;;;1.60;;
70967;SDS011;58629;48.808;8.820;2023-04-15T05:37:05;2.30;;;1.20;;
70967;SDS011;58629;48.808;8.820;2023-04-15T05:39:30;2.93;;;1.50;;
70967;SDS011;58629;48.808;8.820;2023-04-15T05:41:56;3.08;;;1.30;;
70967;SDS011;58629;48.808;8.820;2023-04-15T05:44:22;2.30;;;1.40;;
70967;SDS011;58629;48.808;8.820;2023-04-15T05:46:47;2.50;;;1.47;;
70967;SDS011;58629;48.808;8.820;2023-04-15T05:49:12;4.40;;;2.17;;
70967;SDS011;58629;48.808;8.820;2023-04-15T05:51:38;3.33;;;1.60;;
70967;SDS011;58629;48.808;8.820;2023-04-15T05:54:03;2.83;;;1.60;;
70967;SDS011;58629;48.808;8.820;2023-04-15T05:56:28;3.53;;;1.90;;
70967;SDS011;58629;48.808;8.820;2023-04-15T05:58:53;3.00;;;1.70;;
70967;SDS011;58629;48.808;8.820;2023-04-15T06:01:19;3.97;;;1.90;;
70967;SDS011;58629;48.808;8.820;2023-04-15T06:03:44;3.75;;;2.00;;
70967;SDS011;58629;48.808;8.820;2023-04-15T06:06:10;3.57;;;1.90;;
70967;SDS011;58629;48.808;8.820;2023-04-15T06:08:35;3.90;;;2.00;;
70967;SDS011;58629;48.808;8.820;2023-04-15T06:11:01;2.90;;;1.73;;
70967;SDS011;58629;48.808;8.820;2023-04-15T06:13:26;3.25;;;1.75;;
70967;SDS011;58629;48.808;8.820;2023-04-15T06:15:51;4.55;;;2.45;;
70967;SDS011;58629;48.808;8.820;2023-04-15T06:18:17;3.57;;;2.20;;
70967;SDS011;58629;48.808;8.820;2023-04-15T06:20:44;4.00;;;2.30;;
70967;SDS011;58629;48.808;8.820;2023-04-15T06:23:09;4.03;;;2.07;;
70967;SDS011;58629;48.808;8.820;2023-04-15T06:25:35;4.80;;;2.25;;
70967;SDS011;58629;48.808;8.820;2023-04-15T06:28:00;4.13;;;2.53;;
70967;SDS011;58629;48.808;8.820;2023-04-15T06:30:25;4.10;;;2.27;;
70967;SDS011;58629;48.808;8.820;2023-04-15T06:32:51;3.97;;;2.30;;
70967;SDS011;58629;48.808;8.820;2023-04-15T06:35:16;3.60;;;2.20;;
70967;SDS011;58629;48.808;8.820;2023-04-15T06:37:41;3.53;;;2.10;;
70967;SDS011;58629;48.808;8.820;2023-04-15T06:40:07;3.87;;;2.20;;
70967;SDS011;58629;48.808;8.820;2023-04-15T06:42:34;3.60;;;2.03;;
70967;SDS011;58629;48.808;8.820;2023-04-15T06:45:02;3.47;;;2.20;;
70967;SDS011;58629;48.808;8.820;2023-04-15T06:47:28;4.07;;;2.45;;
70967;SDS011;58629;48.808;8.820;2023-04-15T06:49:53;3.85;;;2.15;;
70967;SDS011;58629;48.808;8.820;2023-04-15T06:52:18;4.28;;;2.30;;
70967;SDS011;58629;48.808;8.820;2023-04-15T06:54:44;4.93;;;2.87;;
70967;SDS011;58629;48.808;8.820;2023-04-15T06:57:09;3.37;;;2.10;;
70967;SDS011;58629;48.808;8.820;2023-04-15T06:59:34;3.97;;;2.20;;
70967;SDS011;58629;48.808;8.820;2023-04-15T07:02:00;4.60;;;2.47;;
70967;SDS011;58629;48.808;8.820;2023-04-15T07:04:25;4.30;;;2.40;;
70967;SDS011;58629;48.808;8.820;2023-04-15T07:06:51;4.03;;;2.20;;
70967;SDS011;58629;48.808;8.820;2023-04-15T07:09:17;4.97;;;2.60;;
70967;SDS011;58629;48.808;8.820;2023-04-15T07:11:43;4.13;;;2.30;;
70967;SDS011;58629;48.808;8.820;2023-04-15T07:14:09;3.70;;;2.30;;
70967;SDS011;58629;48.808;8.820;2023-04-15T07:16:34;5.13;;;2.83;;
70967;SDS011;58629;48.808;8.820;2023-04-15T07:18:59;4.57;;;2.47;;
70967;SDS011;58629;48.808;8.820;2023-04-15T07:21:24;4.13;;;2.23;;
70967;SDS011;58629;48.808;8.820;2023-04-15T07:23:51;4.63;;;3.08;;
70967;SDS011;58629;48.808;8.820;2023-04-15T07:26:17;8.53;;;3.40;;
70967;SDS011;58629;48.808;8.820;2023-04-15T07:28:42;7.23;;;3.30;;
70967;SDS011;58629;48.808;8.820;2023-04-15T07:31:07;5.57;;;3.00;;
70967;SDS011;58629;48.808;8.820;2023-04-15T07:33:33;4.90;;;2.70;;
70967;SDS011;58629;48.808;8.820;2023-04-15T07:35:58;3.60;;;2.20;;
70967;SDS011;58629;48.808;8.820;2023-04-15T07:38:23;4.20;;;2.57;;
70967;SDS011;58629;48.808;8.820;2023-04-15T07:40:49;3.60;;;2.10;;
70967;SDS011;58629;48.808;8.820;2023-04-15T07:43:14;3.55;;;2.13;;
70967;SDS011;58629;48.808;8.820;2023-04-15T07:45:40;5.17;;;2.77;;
70967;SDS011;58629;48.808;8.820;2023-04-15T07:48:05;4.43;;;2.40;;
70967;SDS011;58629;48.808;8.820;2023-04-15T07:50:30;3.50;;;2.23;;
70967;SDS011;58629;48.808;8.820;2023-04-15T07:52:56;3.58;;;2.40;;
70967;SDS011;58629;48.808;8.820;2023-04-15T07:55:21;3.73;;;2.13;;
70967;SDS011;58629;48.808;8.820;2023-04-15T07:57:48;5.18;;;2.95;;
70967;SDS011;58629;48.808;8.820;2023-04-15T08:00:14;4.40;;;2.60;;
70967;SDS011;58629;48.808;8.820;2023-04-15T08:02:40;3.30;;;2.08;;
70967;SDS011;58629;48.808;8.820;2023-04-15T08:05:06;5.00;;;2.45;;
70967;SDS011;58629;48.808;8.820;2023-04-15T08:07:32;4.17;;;2.23;;
70967;SDS011;58629;48.808;8.820;2023-04-15T08:09:57;3.83;;;2.20;;
70967;SDS011;58629;48.808;8.820;2023-04-15T08:12:22;3.53;;;1.98;;
70967;SDS011;58629;48.808;8.820;2023-04-15T08:14:49;3.63;;;2.10;;
70967;SDS011;58629;48.808;8.820;2023-04-15T08:17:14;3.50;;;2.00;;
70967;SDS011;58629;48.808;8.820;2023-04-15T08:19:40;4.22;;;2.05;;
70967;SDS011;58629;48.808;8.820;2023-04-15T08:22:06;3.13;;;1.70;;
70967;SDS011;58629;48.808;8.820;2023-04-15T08:24:31;2.30;;;1.23;;
70967;SDS011;58629;48.808;8.820;2023-04-15T08:26:56;2.07;;;1.13;;
70967;SDS011;58629;48.808;8.820;2023-04-15T08:29:22;2.53;;;1.10;;
70967;SDS011;58629;48.808;8.820;2023-04-15T08:31:48;2.60;;;0.90;;
70967;SDS011;58629;48.808;8.820;2023-04-15T08:34:13;3.10;;;1.20;;
70967;SDS011;58629;48.808;8.820;2023-04-15T08:36:39;4.88;;;1.10;;
70967;SDS011;58629;48.808;8.820;2023-04-15T08:39:05;3.90;;;1.40;;
70967;SDS011;58629;48.808;8.820;2023-04-15T08:41:38;2.53;;;1.00;;
70967;SDS011;58629;48.808;8.820;2023-04-15T08:44:05;2.95;;;1.50;;
70967;SDS011;58629;48.808;8.820;2023-04-15T08:46:31;3.03;;;1.20;;
70967;SDS011;58629;48.808;8.820;2023-04-15T08:49:02;2.47;;;1.20;;
70967;SDS011;58629;48.808;8.820;2023-04-15T08:51:28;2.00;;;1.10;;
70967;SDS011;58629;48.808;8.820;2023-04-15T08:53:54;1.50;;;1.00;;
70967;SDS011;58629;48.808;8.820;2023-04-15T08:56:21;2.58;;;1.10;;
70967;SDS011;58629;48.808;8.820;2023-04-15T08:58:49;2.40;;;1.25;;
70967;SDS011;58629;48.808;8.820;2023-04-15T09:01:14;3.80;;;1.63;;
70967;SDS011;58629;48.808;8.820;2023-04-15T09:03:40;2.88;;;1.40;;
70967;SDS011;58629;48.808;8.820;2023-04-15T09:06:06;1.83;;;1.20;;
70967;SDS011;58629;48.808;8.820;2023-04-15T09:08:32;2.78;;;1.50;;
70967;SDS011;58629;48.808;8.820;2023-04-15T09:11:01;2.57;;;1.20;;
70967;SDS011;58629;48.808;8.820;2023-04-15T09:13:27;2.63;;;1.33;;
70967;SDS011;58629;48.808;8.820;2023-04-15T09:15:52;3.65;;;1.35;;
70967;SDS011;58629;48.808;8.820;2023-04-15T09:18:34;3.78;;;1.73;;
70967;SDS011;58629;48.808;8.820;2023-04-15T09:21:04;1.93;;;1.20;;
70967;SDS011;58629;48.808;8.820;2023-04-15T09:23:33;2.33;;;1.15;;
70967;SDS011;58629;48.808;8.820;2023-04-15T09:26:00;2.25;;;1.17;;
70967;SDS011;58629;48.808;8.820;2023-04-15T09:28:27;2.40;;;1.45;;
70967;SDS011;58629;48.808;8.820;2023-04-15T09:30:58;3.60;;;1.45;;
70967;SDS011;58629;48.808;8.820;2023-04-15T09:33:25;3.43;;;1.33;;
70967;SDS011;58629;48.808;8.820;2023-04-15T09:35:55;3.45;;;1.52;;
70967;SDS011;58629;48.808;8.820;2023-04-15T09:38:29;2.33;;;1.15;;
70967;SDS011;58629;48.808;8.820;2023-04-15T09:40:55;2.58;;;1.25;;
70967;SDS011;58629;48.808;8.820;2023-04-15T09:43:21;1.85;;;1.20;;
70967;SDS011;58629;48.808;8.820;2023-04-15T09:45:51;2.87;;;1.40;;
70967;SDS011;58629;48.808;8.820;2023-04-15T09:50:42;3.80;;;1.30;;
70967;SDS011;58629;48.808;8.820;2023-04-15T09:53:14;2.43;;;1.20;;
70967;SDS011;58629;48.808;8.820;2023-04-15T09:55:45;2.78;;;1.00;;
70967;SDS011;58629;48.808;8.820;2023-04-15T10:00:48;2.13;;;1.23;;
70967;SDS011;58629;48.808;8.820;2023-04-15T10:03:17;2.42;;;1.40;;
70967;SDS011;58629;48.808;8.820;2023-04-15T10:05:54;3.30;;;1.65;;
70967;SDS011;58629;48.808;8.820;2023-04-15T10:08:25;3.55;;;1.50;;
70967;SDS011;58629;48.808;8.820;2023-04-15T10:10:52;3.60;;;2.38;;
70967;SDS011;58629;48.808;8.820;2023-04-15T10:13:18;5.82;;;2.75;;
70967;SDS011;58629;48.808;8.820;2023-04-15T10:18:26;3.45;;;1.90;;
70967;SDS011;58629;48.808;8.820;2023-04-15T10:20:52;2.92;;;1.40;;
70967;SDS011;58629;48.808;8.820;2023-04-15T10:23:19;3.38;;;1.85;;
70967;SDS011;58629;48.808;8.820;2023-04-15T10:25:45;3.33;;;1.67;;
70967;SDS011;58629;48.808;8.820;2023-04-15T10:28:11;3.83;;;1.60;;
70967;SDS011;58629;48.808;8.820;2023-04-15T10:30:37;3.20;;;1.60;;
70967;SDS011;58629;48.808;8.820;2023-04-15T10:33:02;2.30;;;1.60;;
70967;SDS011;58629;48.808;8.820;2023-04-15T10:35:30;4.38;;;1.73;;
70967;SDS011;58629;48.808;8.820;2023-04-15T10:37:56;2.90;;;1.40;;
70967;SDS011;58629;48.808;8.820;2023-04-15T10:40:28;3.30;;;1.80;;
70967;SDS011;58629;48.808;8.820;2023-04-15T10:42:56;3.42;;;1.60;;
70967;SDS011;58629;48.808;8.820;2023-04-15T10:45:43;2.90;;;1.50;;
70967;SDS011;58629;48.808;8.820;2023-04-15T10:48:08;3.72;;;1.35;;
70967;SDS011;58629;48.808;8.820;2023-04-15T10:50:34;3.55;;;1.70;;
70967;SDS011;58629;48.808;8.820;2023-04-15T10:53:01;2.75;;;1.77;;
70967;SDS011;58629;48.808;8.820;2023-04-15T10:55:32;4.05;;;2.08;;
70967;SDS011;58629;48.808;8.820;2023-04-15T10:57:58;4.22;;;2.45;;
70967;SDS011;58629;48.808;8.820;2023-04-15T11:00:28;3.28;;;2.40;;
70967;SDS011;58629;48.808;8.820;2023-04-15T11:02:55;4.50;;;2.40;;
70967;SDS011;58629;48.808;8.820;2023-04-15T11:05:23;4.05;;;2.30;;
70967;SDS011;58629;48.808;8.820;2023-04-15T11:08:13;3.90;;;2.80;;
70967;SDS011;58629;48.808;8.820;2023-04-15T11:10:49;4.47;;;2.30;;
70967;SDS011;58629;48.808;8.820;2023-04-15T11:13:16;3.28;;;1.70;;
70967;SDS011;58629;48.808;8.820;2023-04-15T11:15:46;3.80;;;1.85;;
70967;SDS011;58629;48.808;8.820;2023-04-15T11:18:13;4.80;;;2.55;;
70967;SDS011;58629;48.808;8.820;2023-04-15T11:20:49;4.68;;;2.38;;
70967;SDS011;58629;48.808;8.820;2023-04-15T11:23:19;4.90;;;2.00;;
70967;SDS011;58629;48.808;8.820;2023-04-15T11:26:07;4.55;;;2.20;;
70967;SDS011;58629;48.808;8.820;2023-04-15T11:28:35;3.75;;;2.00;;
70967;SDS011;58629;48.808;8.820;2023-04-15T11:31:04;4.15;;;2.20;;
70967;SDS011;58629;48.808;8.820;2023-04-15T11:33:35;4.60;;;1.92;;
70967;SDS011;58629;48.808;8.820;2023-04-15T11:36:00;4.63;;;2.10;;
70967;SDS011;58629;48.808;8.820;2023-04-15T11:38:28;5.53;;;2.80;;
70967;SDS011;58629;48.808;8.820;2023-04-15T11:40:53;4.93;;;3.20;;
70967;SDS011;58629;48.808;8.820;2023-04-15T11:43:19;5.03;;;2.95;;
70967;SDS011;58629;48.808;8.820;2023-04-15T11:45:47;4.88;;;3.00;;
70967;SDS011;58629;48.808;8.820;2023-04-15T11:48:15;5.80;;;3.25;;
70967;SDS011;58629;48.808;8.820;2023-04-15T11:50:41;7.50;;;3.42;;
70967;SDS011;58629;48.808;8.820;2023-04-15T11:53:07;7.87;;;3.90;;
70967;SDS011;58629;48.808;8.820;2023-04-15T11:55:44;8.48;;;3.28;;
70967;SDS011;58629;48.808;8.820;2023-04-15T12:00:51;10.10;;;3.77;;
70967;SDS011;58629;48.808;8.820;2023-04-15T12:11:32;6.28;;;3.10;;
70967;SDS011;58629;48.808;8.820;2023-04-15T12:13:59;5.17;;;3.40;;
70967;SDS011;58629;48.808;8.820;2023-04-15T12:16:28;6.18;;;3.25;;
70967;SDS011;58629;48.808;8.820;2023-04-15T12:18:55;7.00;;;3.90;;
70967;SDS011;58629;48.808;8.820;2023-04-15T12:21:23;5.88;;;3.30;;
70967;SDS011;58629;48.808;8.820;2023-04-15T12:26:25;7.53;;;4.32;;
70967;SDS011;58629;48.808;8.820;2023-04-15T12:28:55;8.18;;;4.72;;
70967;SDS011;58629;48.808;8.820;2023-04-15T12:31:25;7.50;;;4.70;;
70967;SDS011;58629;48.808;8.820;2023-04-15T12:33:50;8.37;;;4.53;;
70967;SDS011;58629;48.808;8.820;2023-04-15T12:36:15;8.70;;;4.60;;
70967;SDS011;58629;48.808;8.820;2023-04-15T12:38:41;9.63;;;4.50;;
70967;SDS011;58629;48.808;8.820;2023-04-15T12:41:06;6.33;;;3.80;;
70967;SDS011;58629;48.808;8.820;2023-04-15T12:43:31;6.00;;;3.67;;
70967;SDS011;58629;48.808;8.820;2023-04-15T12:45:56;5.23;;;3.43;;
70967;SDS011;58629;48.808;8.820;2023-04-15T12:48:22;6.57;;;3.80;;
70967;SDS011;58629;48.808;8.820;2023-04-15T12:50:47;5.82;;;3.40;;
70967;SDS011;58629;48.808;8.820;2023-04-15T12:53:12;7.20;;;3.47;;
70967;SDS011;58629;48.808;8.820;2023-04-15T12:55:38;6.80;;;3.57;;
70967;SDS011;58629;48.808;8.820;2023-04-15T12:58:03;4.87;;;3.00;;
70967;SDS011;58629;48.808;8.820;2023-04-15T13:00:28;12.93;;;4.00;;
70967;SDS011;58629;48.808;8.820;2023-04-15T13:02:54;6.57;;;3.80;;
70967;SDS011;58629;48.808;8.820;2023-04-15T13:05:19;6.57;;;3.67;;
70967;SDS011;58629;48.808;8.820;2023-04-15T13:07:44;7.13;;;4.00;;
70967;SDS011;58629;48.808;8.820;2023-04-15T13:10:10;4.27;;;3.23;;
70967;SDS011;58629;48.808;8.820;2023-04-15T13:12:35;5.53;;;3.45;;
70967;SDS011;58629;48.808;8.820;2023-04-15T13:15:01;5.33;;;3.53;;
70967;SDS011;58629;48.808;8.820;2023-04-15T13:17:28;4.57;;;3.05;;
70967;SDS011;58629;48.808;8.820;2023-04-15T13:19:53;4.27;;;2.87;;
70967;SDS011;58629;48.808;8.820;2023-04-15T13:22:18;4.90;;;2.83;;
70967;SDS011;58629;48.808;8.820;2023-04-15T13:24:44;5.03;;;3.20;;
70967;SDS011;58629;48.808;8.820;2023-04-15T13:27:10;4.28;;;2.80;;
70967;SDS011;58629;48.808;8.820;2023-04-15T13:29:35;5.57;;;3.13;;
70967;SDS011;58629;48.808;8.820;2023-04-15T13:32:00;4.90;;;3.07;;
70967;SDS011;58629;48.808;8.820;2023-04-15T13:34:26;4.83;;;3.40;;
70967;SDS011;58629;48.808;8.820;2023-04-15T13:36:51;5.30;;;3.00;;
70967;SDS011;58629;48.808;8.820;2023-04-15T13:39:16;3.87;;;2.70;;
70967;SDS011;58629;48.808;8.820;2023-04-15T13:41:41;4.87;;;2.67;;
70967;SDS011;58629;48.808;8.820;2023-04-15T13:44:07;5.50;;;2.83;;
70967;SDS011;58629;48.808;8.820;2023-04-15T13:46:32;7.27;;;3.40;;
70967;SDS011;58629;48.808;8.820;2023-04-15T13:48:57;5.40;;;3.30;;
70967;SDS011;58629;48.808;8.820;2023-04-15T13:51:23;5.60;;;3.00;;
70967;SDS011;58629;48.808;8.820;2023-04-15T13:53:48;4.63;;;2.90;;
70967;SDS011;58629;48.808;8.820;2023-04-15T13:56:13;5.20;;;2.97;;
70967;SDS011;58629;48.808;8.820;2023-04-15T13:58:39;4.90;;;3.00;;
70967;SDS011;58629;48.808;8.820;2023-04-15T14:01:05;4.90;;;2.80;;
70967;SDS011;58629;48.808;8.820;2023-04-15T14:03:30;5.05;;;2.70;;
70967;SDS011;58629;48.808;8.820;2023-04-15T14:05:56;4.20;;;2.70;;
70967;SDS011;58629;48.808;8.820;2023-04-15T14:08:22;4.53;;;2.70;;
70967;SDS011;58629;48.808;8.820;2023-04-15T14:10:48;6.80;;;3.00;;
70967;SDS011;58629;48.808;8.820;2023-04-15T14:13:14;3.57;;;2.00;;
70967;SDS011;58629;48.808;8.820;2023-04-15T14:15:40;2.67;;;1.80;;
70967;SDS011;58629;48.808;8.820;2023-04-15T14:18:05;3.17;;;1.95;;
70967;SDS011;58629;48.808;8.820;2023-04-15T14:20:31;4.25;;;2.40;;
70967;SDS011;58629;48.808;8.820;2023-04-15T14:22:56;4.83;;;2.30;;
70967;SDS011;58629;48.808;8.820;2023-04-15T14:25:22;5.00;;;2.70;;
70967;SDS011;58629;48.808;8.820;2023-04-15T14:27:47;7.03;;;3.50;;
70967;SDS011;58629;48.808;8.820;2023-04-15T14:30:13;3.80;;;2.20;;
70967;SDS011;58629;48.808;8.820;2023-04-15T14:32:38;3.13;;;2.20;;
70967;SDS011;58629;48.808;8.820;2023-04-15T14:35:03;5.10;;;2.40;;
70967;SDS011;58629;48.808;8.820;2023-04-15T14:37:29;3.73;;;2.20;;
70967;SDS011;58629;48.808;8.820;2023-04-15T14:39:54;4.35;;;2.35;;
70967;SDS011;58629;48.808;8.820;2023-04-15T14:42:20;5.90;;;2.50;;
70967;SDS011;58629;48.808;8.820;2023-04-15T14:44:45;5.87;;;2.57;;
70967;SDS011;58629;48.808;8.820;2023-04-15T14:47:11;3.90;;;2.60;;
70967;SDS011;58629;48.808;8.820;2023-04-15T14:49:36;9.90;;;3.85;;
70967;SDS011;58629;48.808;8.820;2023-04-15T14:52:02;5.17;;;2.80;;
70967;SDS011;58629;48.808;8.820;2023-04-15T14:54:28;9.03;;;2.97;;
70967;SDS011;58629;48.808;8.820;2023-04-15T14:56:53;4.63;;;2.80;;
70967;SDS011;58629;48.808;8.820;2023-04-15T14:59:18;4.70;;;2.50;;
70967;SDS011;58629;48.808;8.820;2023-04-15T15:01:43;4.77;;;2.73;;
70967;SDS011;58629;48.808;8.820;2023-04-15T15:04:09;3.67;;;2.47;;